createdAt,value
2018-04-08T00:00:24.249Z,0.00
2018-04-08T00:01:24.267Z,0.00
2018-04-08T00:02:24.281Z,0.00
2018-04-08T00:03:24.316Z,0.00
2018-04-08T00:04:24.330Z,0.00
2018-04-08T00:05:24.353Z,0.00
2018-04-08T00:06:24.367Z,0.00
2018-04-08T00:07:24.393Z,0.00
2018-04-08T00:08:24.415Z,0.00
2018-04-08T00:09:24.440Z,0.00
2018-04-08T00:10:24.458Z,0.00
2018-04-08T00:11:24.481Z,0.00
2018-04-08T00:12:24.499Z,0.00
2018-04-08T00:13:24.527Z,0.00
2018-04-08T00:14:24.540Z,0.00
2018-04-08T00:15:24.565Z,0.00
2018-04-08T00:16:24.590Z,0.00
2018-04-08T00:17:24.610Z,0.00
2018-04-08T00:18:24.635Z,0.00
2018-04-08T00:19:24.653Z,0.00
2018-04-08T00:20:24.676Z,0.00
2018-04-08T00:21:24.696Z,0.00
2018-04-08T00:22:24.723Z,0.00
2018-04-08T00:23:24.735Z,0.00
2018-04-08T00:24:24.765Z,0.00
2018-04-08T00:25:24.780Z,0.00
2018-04-08T00:26:24.807Z,0.00
2018-04-08T00:27:24.829Z,0.00
2018-04-08T00:28:24.840Z,0.00
2018-04-08T00:29:24.869Z,0.00
2018-04-08T00:30:24.888Z,0.00
2018-04-08T00:31:24.912Z,0.00
2018-04-08T00:32:24.936Z,0.00
2018-04-08T00:33:24.959Z,0.00
2018-04-08T00:34:24.976Z,0.00
2018-04-08T00:35:25.002Z,0.00
2018-04-08T00:36:25.014Z,0.00
2018-04-08T00:37:25.042Z,0.00
2018-04-08T00:38:25.063Z,0.00
2018-04-08T00:39:25.087Z,0.00
2018-04-08T00:40:25.103Z,0.00
2018-04-08T00:41:25.121Z,0.00
2018-04-08T00:42:25.154Z,0.00
2018-04-08T00:43:25.170Z,0.00
2018-04-08T00:44:25.224Z,0.00
2018-04-08T00:45:25.209Z,0.00
2018-04-08T00:46:25.233Z,0.00
2018-04-08T00:47:25.253Z,0.00
2018-04-08T00:48:25.277Z,0.00
2018-04-08T00:49:25.292Z,0.00
2018-04-08T00:50:25.326Z,0.00
2018-04-08T00:51:25.336Z,0.00
2018-04-08T00:52:25.364Z,0.00
2018-04-08T00:53:25.385Z,0.00
2018-04-08T00:54:25.418Z,0.00
2018-04-08T00:55:25.426Z,0.00
2018-04-08T00:56:25.451Z,0.00
2018-04-08T00:57:25.473Z,0.00
2018-04-08T00:58:25.492Z,0.00
2018-04-08T00:59:25.542Z,0.00
2018-04-08T01:00:25.528Z,0.00
2018-04-08T01:01:25.549Z,0.00
2018-04-08T01:02:25.579Z,0.00
2018-04-08T01:03:25.593Z,0.00
2018-04-08T01:04:25.621Z,0.00
2018-04-08T01:05:25.638Z,0.00
2018-04-08T01:06:25.661Z,0.00
2018-04-08T01:07:25.680Z,0.00
2018-04-08T01:08:25.707Z,0.00
2018-04-08T01:09:25.722Z,0.00
2018-04-08T01:10:25.741Z,0.00
2018-04-08T01:11:25.766Z,0.00
2018-04-08T01:12:25.784Z,0.00
2018-04-08T01:13:25.811Z,0.00
2018-04-08T01:14:25.830Z,0.00
2018-04-08T01:15:25.848Z,0.00
2018-04-08T01:16:25.877Z,0.00
2018-04-08T01:17:25.894Z,0.00
2018-04-08T01:18:25.917Z,0.00
2018-04-08T01:19:25.936Z,0.00
2018-04-08T01:20:25.960Z,0.00
2018-04-08T01:21:25.976Z,0.00
2018-04-08T01:22:26.007Z,0.00
2018-04-08T01:23:26.019Z,0.00
2018-04-08T01:24:26.052Z,0.00
2018-04-08T01:25:26.067Z,0.00
2018-04-08T01:26:26.090Z,0.00
2018-04-08T01:27:26.104Z,0.00
2018-04-08T01:28:26.127Z,0.00
2018-04-08T01:29:26.147Z,0.00
2018-04-08T01:30:26.172Z,0.00
2018-04-08T01:31:26.192Z,0.00
2018-04-08T01:32:26.216Z,0.00
2018-04-08T01:33:26.230Z,0.00
2018-04-08T01:34:26.260Z,0.00
2018-04-08T01:35:26.274Z,0.00
2018-04-08T01:36:26.302Z,0.00
2018-04-08T01:37:26.319Z,0.00
2018-04-08T01:38:26.343Z,0.00
2018-04-08T01:39:26.368Z,0.00
2018-04-08T01:40:26.384Z,0.00
2018-04-08T01:41:26.402Z,0.00
2018-04-08T01:42:26.428Z,0.00
2018-04-08T01:43:26.446Z,0.00
2018-04-08T01:44:26.464Z,0.00
2018-04-08T01:45:26.490Z,0.00
2018-04-08T01:46:26.510Z,0.00
2018-04-08T01:47:26.528Z,0.00
2018-04-08T01:48:26.559Z,0.00
2018-04-08T01:49:26.579Z,0.00
2018-04-08T01:50:26.591Z,0.00
2018-04-08T01:51:26.615Z,0.00
2018-04-08T01:52:26.639Z,0.00
2018-04-08T01:53:26.661Z,0.00
2018-04-08T01:54:26.678Z,0.00
2018-04-08T01:55:26.697Z,0.00
2018-04-08T01:56:26.725Z,0.00
2018-04-08T01:57:26.744Z,0.00
2018-04-08T01:58:26.762Z,0.00
2018-04-08T01:59:26.786Z,0.00
2018-04-08T02:00:26.812Z,0.00
2018-04-08T02:01:26.832Z,0.00
2018-04-08T02:02:26.852Z,0.00
2018-04-08T02:03:26.875Z,0.00
2018-04-08T02:04:26.886Z,0.00
2018-04-08T02:05:26.907Z,0.00
2018-04-08T02:06:26.937Z,0.00
2018-04-08T02:07:26.955Z,0.00
2018-04-08T02:08:26.973Z,0.00
2018-04-08T02:09:26.995Z,0.00
2018-04-08T02:10:27.019Z,0.00
2018-04-08T02:11:27.042Z,0.00
2018-04-08T02:12:27.054Z,0.00
2018-04-08T02:13:27.134Z,0.00
2018-04-08T02:14:27.108Z,0.00
2018-04-08T02:15:27.122Z,0.00
2018-04-08T02:16:27.138Z,0.00
2018-04-08T02:17:27.163Z,0.00
2018-04-08T02:18:27.188Z,0.00
2018-04-08T02:19:27.231Z,0.00
2018-04-08T02:20:27.225Z,0.00
2018-04-08T02:21:27.249Z,0.00
2018-04-08T02:22:27.264Z,0.00
2018-04-08T02:23:27.288Z,0.00
2018-04-08T02:24:27.318Z,0.00
2018-04-08T02:25:27.333Z,0.00
2018-04-08T02:26:27.351Z,0.00
2018-04-08T02:27:27.369Z,0.00
2018-04-08T02:28:27.398Z,0.00
2018-04-08T02:29:27.411Z,0.00
2018-04-08T02:30:27.441Z,0.00
2018-04-08T02:31:27.461Z,0.00
2018-04-08T02:32:27.481Z,0.00
2018-04-08T02:33:27.503Z,0.00
2018-04-08T02:34:27.517Z,0.00
2018-04-08T02:35:27.540Z,0.00
2018-04-08T02:36:27.563Z,0.00
2018-04-08T02:37:27.579Z,0.00
2018-04-08T02:38:27.608Z,0.00
2018-04-08T02:39:27.621Z,0.00
2018-04-08T02:40:27.657Z,0.00
2018-04-08T02:41:27.665Z,0.00
2018-04-08T02:42:27.689Z,0.00
2018-04-08T02:43:27.707Z,0.00
2018-04-08T02:44:27.730Z,0.00
2018-04-08T02:45:27.749Z,0.00
2018-04-08T02:46:27.774Z,0.00
2018-04-08T02:47:27.791Z,0.00
2018-04-08T02:48:27.814Z,0.00
2018-04-08T02:49:27.828Z,0.00
2018-04-08T02:50:27.866Z,0.00
2018-04-08T02:51:27.872Z,0.00
2018-04-08T02:52:27.900Z,0.00
2018-04-08T02:53:27.915Z,0.00
2018-04-08T02:54:27.939Z,0.00
2018-04-08T02:55:27.957Z,0.00
2018-04-08T02:56:27.979Z,0.00
2018-04-08T02:57:27.997Z,0.00
2018-04-08T02:58:28.026Z,0.00
2018-04-08T02:59:28.037Z,0.00
2018-04-08T03:00:28.067Z,0.00
2018-04-08T03:01:28.082Z,0.00
2018-04-08T03:02:28.108Z,0.00
2018-04-08T03:03:28.124Z,0.00
2018-04-08T03:04:28.150Z,0.00
2018-04-08T03:05:28.165Z,0.00
2018-04-08T03:06:28.189Z,0.00
2018-04-08T03:07:28.208Z,0.00
2018-04-08T03:08:28.230Z,0.00
2018-04-08T03:09:28.252Z,0.00
2018-04-08T03:10:28.269Z,0.00
2018-04-08T03:11:28.289Z,0.00
2018-04-08T03:12:28.315Z,0.00
2018-04-08T03:13:28.337Z,0.00
2018-04-08T03:14:28.350Z,0.00
2018-04-08T03:15:28.373Z,0.00
2018-04-08T03:16:28.395Z,0.00
2018-04-08T03:17:28.420Z,0.00
2018-04-08T03:18:28.437Z,0.00
2018-04-08T03:19:28.457Z,0.00
2018-04-08T03:20:28.474Z,0.00
2018-04-08T03:21:28.495Z,0.00
2018-04-08T03:22:28.524Z,0.00
2018-04-08T03:23:28.541Z,0.00
2018-04-08T03:24:28.558Z,0.00
2018-04-08T03:25:28.584Z,0.00
2018-04-08T03:26:28.606Z,0.00
2018-04-08T03:27:28.622Z,0.00
2018-04-08T03:28:28.645Z,0.00
2018-04-08T03:29:28.663Z,0.00
2018-04-08T03:30:28.690Z,0.00
2018-04-08T03:31:28.702Z,0.00
2018-04-08T03:32:28.754Z,0.00
2018-04-08T03:33:28.742Z,0.00
2018-04-08T03:34:28.767Z,0.00
2018-04-08T03:35:28.791Z,0.00
2018-04-08T03:36:28.812Z,0.00
2018-04-08T03:37:28.834Z,0.00
2018-04-08T03:38:28.845Z,0.00
2018-04-08T03:39:28.870Z,0.00
2018-04-08T03:40:28.892Z,0.00
2018-04-08T03:41:28.918Z,0.00
2018-04-08T03:42:28.933Z,0.00
2018-04-08T03:43:28.956Z,0.00
2018-04-08T03:44:28.972Z,0.00
2018-04-08T03:45:29.002Z,0.00
2018-04-08T03:46:29.010Z,0.00
2018-04-08T03:47:29.040Z,0.00
2018-04-08T03:48:29.059Z,0.00
2018-04-08T03:49:29.077Z,0.00
2018-04-08T03:50:29.100Z,0.00
2018-04-08T03:51:29.119Z,0.00
2018-04-08T03:52:29.141Z,0.00
2018-04-08T03:53:29.154Z,0.00
2018-04-08T03:54:29.184Z,0.00
2018-04-08T03:55:29.196Z,0.00
2018-04-08T03:56:29.225Z,0.00
2018-04-08T03:57:29.241Z,0.00
2018-04-08T03:58:29.265Z,0.00
2018-04-08T03:59:29.288Z,0.00
2018-04-08T04:00:29.304Z,0.00
2018-04-08T04:01:29.321Z,0.00
2018-04-08T04:02:29.350Z,0.00
2018-04-08T04:03:29.368Z,0.00
2018-04-08T04:04:29.386Z,0.00
2018-04-08T04:05:29.403Z,0.00
2018-04-08T04:06:29.435Z,0.00
2018-04-08T04:07:29.447Z,0.00
2018-04-08T04:08:29.473Z,0.00
2018-04-08T04:09:29.489Z,0.00
2018-04-08T04:10:29.513Z,0.00
2018-04-08T04:11:29.531Z,0.00
2018-04-08T04:12:29.554Z,0.00
2018-04-08T04:13:29.573Z,0.00
2018-04-08T04:14:29.589Z,0.00
2018-04-08T04:15:29.621Z,0.00
2018-04-08T04:16:29.629Z,4.00
2018-04-08T04:17:29.657Z,4.00
2018-04-08T04:18:29.676Z,0.00
2018-04-08T04:19:29.696Z,0.00
2018-04-08T04:20:29.714Z,4.00
2018-04-08T04:21:29.733Z,4.00
2018-04-08T04:22:29.762Z,4.00
2018-04-08T04:23:29.775Z,8.00
2018-04-08T04:24:29.803Z,4.00
2018-04-08T04:25:29.819Z,4.00
2018-04-08T04:26:29.844Z,8.00
2018-04-08T04:27:29.859Z,12.00
2018-04-08T04:28:29.882Z,12.00
2018-04-08T04:29:29.903Z,12.00
2018-04-08T04:30:29.927Z,16.00
2018-04-08T04:31:29.940Z,16.00
2018-04-08T04:32:29.970Z,20.00
2018-04-08T04:33:29.982Z,24.00
2018-04-08T04:34:30.007Z,32.00
2018-04-08T04:35:30.031Z,36.00
2018-04-08T04:36:30.047Z,36.00
2018-04-08T04:37:30.070Z,44.00
2018-04-08T04:38:30.089Z,52.00
2018-04-08T04:39:30.107Z,56.00
2018-04-08T04:40:30.130Z,64.00
2018-04-08T04:41:30.151Z,72.00
2018-04-08T04:42:30.170Z,84.00
2018-04-08T04:43:30.191Z,96.00
2018-04-08T04:44:30.216Z,108.00
2018-04-08T04:45:30.254Z,120.00
2018-04-08T04:46:30.254Z,132.00
2018-04-08T04:47:30.277Z,148.00
2018-04-08T04:48:30.289Z,164.00
2018-04-08T04:49:30.311Z,184.00
2018-04-08T04:50:30.334Z,200.00
2018-04-08T04:51:30.353Z,224.00
2018-04-08T04:52:30.373Z,248.00
2018-04-08T04:53:30.392Z,272.00
2018-04-08T04:54:30.423Z,292.00
2018-04-08T04:55:30.436Z,320.00
2018-04-08T04:56:30.461Z,352.00
2018-04-08T04:57:30.477Z,388.00
2018-04-08T04:58:30.500Z,420.00
2018-04-08T04:59:30.519Z,464.00
2018-04-08T05:00:30.541Z,508.00
2018-04-08T05:01:30.562Z,556.00
2018-04-08T05:02:30.581Z,604.00
2018-04-08T05:03:30.604Z,656.00
2018-04-08T05:04:30.623Z,716.00
2018-04-08T05:05:30.652Z,776.00
2018-04-08T05:06:30.666Z,840.00
2018-04-08T05:07:30.683Z,904.00
2018-04-08T05:08:30.700Z,968.00
2018-04-08T05:09:30.724Z,1040.00
2018-04-08T05:10:30.747Z,1104.00
2018-04-08T05:11:30.766Z,1180.00
2018-04-08T05:12:30.788Z,1252.00
2018-04-08T05:13:30.805Z,1320.00
2018-04-08T05:14:30.833Z,1400.00
2018-04-08T05:15:30.845Z,1484.00
2018-04-08T05:16:30.873Z,1564.00
2018-04-08T05:17:30.895Z,1652.00
2018-04-08T05:18:30.907Z,1744.00
2018-04-08T05:19:30.935Z,1836.00
2018-04-08T05:20:30.954Z,1936.00
2018-04-08T05:21:30.974Z,2028.00
2018-04-08T05:22:30.991Z,2116.00
2018-04-08T05:23:31.011Z,2212.00
2018-04-08T05:24:31.034Z,2300.00
2018-04-08T05:25:31.057Z,2400.00
2018-04-08T05:26:31.075Z,2504.00
2018-04-08T05:27:31.098Z,2604.00
2018-04-08T05:28:31.117Z,2708.00
2018-04-08T05:29:31.145Z,2808.00
2018-04-08T05:30:31.156Z,2900.00
2018-04-08T05:31:31.188Z,2992.00
2018-04-08T05:32:31.195Z,3088.00
2018-04-08T05:33:31.223Z,3188.00
2018-04-08T05:34:31.246Z,3284.00
2018-04-08T05:35:31.259Z,3376.00
2018-04-08T05:36:31.290Z,3464.00
2018-04-08T05:37:31.304Z,3544.00
2018-04-08T05:38:31.327Z,3600.00
2018-04-08T05:39:31.355Z,3660.00
2018-04-08T05:40:31.369Z,3724.00
2018-04-08T05:41:31.387Z,3792.00
2018-04-08T05:42:31.414Z,3864.00
2018-04-08T05:43:31.431Z,3928.00
2018-04-08T05:44:31.451Z,3976.00
2018-04-08T05:45:31.468Z,4020.00
2018-04-08T05:46:31.496Z,4048.00
2018-04-08T05:47:31.510Z,4032.00
2018-04-08T05:48:31.537Z,4004.00
2018-04-08T05:49:31.554Z,3960.00
2018-04-08T05:50:31.578Z,3896.00
2018-04-08T05:51:31.597Z,3816.00
2018-04-08T05:52:31.613Z,3708.00
2018-04-08T05:53:31.635Z,3596.00
2018-04-08T05:54:31.658Z,3476.00
2018-04-08T05:55:31.679Z,3360.00
2018-04-08T05:56:31.704Z,3272.00
2018-04-08T05:57:31.723Z,3180.00
2018-04-08T05:58:31.743Z,3092.00
2018-04-08T05:59:31.765Z,3020.00
2018-04-08T06:00:31.781Z,2952.00
2018-04-08T06:01:31.810Z,2888.00
2018-04-08T06:02:31.823Z,2792.00
2018-04-08T06:03:31.853Z,2712.00
2018-04-08T06:04:31.865Z,2668.00
2018-04-08T06:05:31.894Z,2620.00
2018-04-08T06:06:31.910Z,2604.00
2018-04-08T06:07:31.929Z,2596.00
2018-04-08T06:08:31.954Z,2600.00
2018-04-08T06:09:31.979Z,2604.00
2018-04-08T06:10:31.998Z,2612.00
2018-04-08T06:11:32.019Z,2628.00
2018-04-08T06:12:32.039Z,2636.00
2018-04-08T06:13:32.061Z,2652.00
2018-04-08T06:14:32.081Z,2684.00
2018-04-08T06:15:32.108Z,2716.00
2018-04-08T06:16:32.117Z,2760.00
2018-04-08T06:17:32.179Z,2804.00
2018-04-08T06:18:32.173Z,2852.00
2018-04-08T06:19:32.186Z,2900.00
2018-04-08T06:20:32.205Z,2952.00
2018-04-08T06:21:32.226Z,2996.00
2018-04-08T06:22:32.248Z,3028.00
2018-04-08T06:23:32.268Z,3060.00
2018-04-08T06:24:32.290Z,3104.00
2018-04-08T06:25:32.307Z,3156.00
2018-04-08T06:26:32.335Z,3208.00
2018-04-08T06:27:32.349Z,3244.00
2018-04-08T06:28:32.380Z,3260.00
2018-04-08T06:29:32.396Z,3280.00
2018-04-08T06:30:32.414Z,3304.00
2018-04-08T06:31:32.441Z,3336.00
2018-04-08T06:32:32.456Z,3372.00
2018-04-08T06:33:32.482Z,3420.00
2018-04-08T06:34:32.496Z,3476.00
2018-04-08T06:35:32.527Z,3548.00
2018-04-08T06:36:32.538Z,3616.00
2018-04-08T06:37:32.559Z,3688.00
2018-04-08T06:38:32.589Z,3784.00
2018-04-08T06:39:32.602Z,3880.00
2018-04-08T06:40:32.631Z,3992.00
2018-04-08T06:41:32.647Z,4100.00
2018-04-08T06:42:32.672Z,4220.00
2018-04-08T06:43:32.705Z,4336.00
2018-04-08T06:44:32.714Z,4444.00
2018-04-08T06:45:32.732Z,4552.00
2018-04-08T06:46:32.757Z,4652.00
2018-04-08T06:47:32.781Z,4756.00
2018-04-08T06:48:32.799Z,4836.00
2018-04-08T06:49:32.816Z,4920.00
2018-04-08T06:50:32.845Z,5012.00
2018-04-08T06:51:32.866Z,5168.00
2018-04-08T06:52:32.883Z,5280.00
2018-04-08T06:53:32.909Z,5356.00
2018-04-08T06:54:32.927Z,5480.00
2018-04-08T06:55:32.951Z,5620.00
2018-04-08T06:56:32.966Z,5760.00
2018-04-08T06:57:32.987Z,5844.00
2018-04-08T06:58:33.018Z,5872.00
2018-04-08T06:59:33.042Z,5848.00
2018-04-08T07:00:33.053Z,5852.00
2018-04-08T07:01:33.078Z,5904.00
2018-04-08T07:02:33.097Z,5980.00
2018-04-08T07:03:33.116Z,6104.00
2018-04-08T07:04:33.156Z,6268.00
2018-04-08T07:05:33.167Z,6512.00
2018-04-08T07:06:33.180Z,7172.00
2018-04-08T07:07:33.208Z,9892.00
2018-04-08T07:08:33.241Z,14140.00
2018-04-08T07:09:33.248Z,10344.00
2018-04-08T07:10:33.275Z,8920.00
2018-04-08T07:11:33.291Z,8232.00
2018-04-08T07:12:33.318Z,7796.00
2018-04-08T07:13:33.339Z,8460.00
2018-04-08T07:14:33.354Z,10464.00
2018-04-08T07:15:33.383Z,8464.00
2018-04-08T07:16:33.403Z,7520.00
2018-04-08T07:17:33.422Z,7488.00
2018-04-08T07:18:33.580Z,7816.00
2018-04-08T07:19:33.467Z,8164.00
2018-04-08T07:20:33.491Z,7848.00
2018-04-08T07:21:33.511Z,8096.00
2018-04-08T07:22:33.538Z,8512.00
2018-04-08T07:23:33.552Z,8876.00
2018-04-08T07:24:33.603Z,9424.00
2018-04-08T07:25:33.598Z,10048.00
2018-04-08T07:26:33.624Z,10600.00
2018-04-08T07:27:33.641Z,11508.00
2018-04-08T07:28:33.667Z,12052.00
2018-04-08T07:29:33.684Z,12092.00
2018-04-08T07:30:33.714Z,12468.00
2018-04-08T07:31:33.735Z,12880.00
2018-04-08T07:32:33.758Z,12972.00
2018-04-08T07:33:33.772Z,12960.00
2018-04-08T07:34:33.803Z,12824.00
2018-04-08T07:35:33.817Z,12648.00
2018-04-08T07:36:33.847Z,12528.00
2018-04-08T07:37:33.863Z,12592.00
2018-04-08T07:38:33.889Z,12920.00
2018-04-08T07:39:33.910Z,13660.00
2018-04-08T07:40:33.935Z,14908.00
2018-04-08T07:41:33.952Z,18592.00
2018-04-08T07:42:33.981Z,25664.00
2018-04-08T07:43:33.998Z,45408.00
2018-04-08T07:44:34.028Z,59584.00
2018-04-08T07:45:34.049Z,44160.00
2018-04-08T07:46:34.071Z,54496.00
2018-04-08T07:47:34.095Z,33888.00
2018-04-08T07:48:34.125Z,42208.00
2018-04-08T07:49:34.139Z,59872.00
2018-04-08T07:50:34.163Z,32864.00
2018-04-08T07:51:34.182Z,37696.00
2018-04-08T07:52:34.208Z,38656.00
2018-04-08T07:53:34.227Z,49792.00
2018-04-08T07:54:34.260Z,37440.00
2018-04-08T07:55:34.275Z,37504.00
2018-04-08T07:56:34.306Z,43264.00
2018-04-08T07:57:34.330Z,31104.00
2018-04-08T07:58:34.347Z,43616.00
2018-04-08T07:59:34.374Z,43648.00
2018-04-08T08:00:34.396Z,47136.00
2018-04-08T08:01:34.422Z,27264.00
2018-04-08T08:02:34.453Z,25280.00
2018-04-08T08:03:34.475Z,22240.00
2018-04-08T08:04:34.498Z,24096.00
2018-04-08T08:05:34.519Z,32992.00
2018-04-08T08:06:34.553Z,34336.00
2018-04-08T08:07:34.574Z,28928.00
2018-04-08T08:08:34.596Z,46496.00
2018-04-08T08:09:34.622Z,37184.00
2018-04-08T08:10:34.651Z,31648.00
2018-04-08T08:11:34.678Z,31808.00
2018-04-08T08:12:34.695Z,33472.00
2018-04-08T08:13:34.719Z,38112.00
2018-04-08T08:14:34.753Z,38848.00
2018-04-08T08:15:34.778Z,48832.00
2018-04-08T08:16:34.802Z,49472.00
2018-04-08T08:17:34.829Z,66464.00
2018-04-08T08:18:34.846Z,72192.00
2018-04-08T08:19:34.873Z,71872.00
2018-04-08T08:20:34.902Z,71680.00
2018-04-08T08:21:34.930Z,72064.00
2018-04-08T08:22:34.947Z,72416.00
2018-04-08T08:23:35.023Z,72064.00
2018-04-08T08:24:35.005Z,71872.00
2018-04-08T08:25:35.031Z,69696.00
2018-04-08T08:26:35.056Z,53344.00
2018-04-08T08:27:35.079Z,49152.00
2018-04-08T08:28:35.113Z,45184.00
2018-04-08T08:29:35.139Z,41664.00
2018-04-08T08:30:35.162Z,45568.00
2018-04-08T08:31:35.192Z,59808.00
2018-04-08T08:32:35.215Z,72736.00
2018-04-08T08:33:35.250Z,75072.00
2018-04-08T08:34:35.267Z,75488.00
2018-04-08T08:35:35.299Z,75552.00
2018-04-08T08:36:35.322Z,52224.00
2018-04-08T08:37:35.360Z,26720.00
2018-04-08T08:38:35.379Z,23520.00
2018-04-08T08:39:35.415Z,23584.00
2018-04-08T08:40:35.435Z,27264.00
2018-04-08T08:41:35.470Z,30432.00
2018-04-08T08:42:35.494Z,55296.00
2018-04-08T08:43:35.549Z,54720.00
2018-04-08T08:44:35.550Z,66944.00
2018-04-08T08:45:35.584Z,76448.00
2018-04-08T08:46:35.609Z,77024.00
2018-04-08T08:47:35.639Z,76928.00
2018-04-08T08:48:35.660Z,77184.00
2018-04-08T08:49:35.687Z,78208.00
2018-04-08T08:50:35.724Z,78624.00
2018-04-08T08:51:35.745Z,78752.00
2018-04-08T08:52:35.775Z,78624.00
2018-04-08T08:53:35.801Z,76288.00
2018-04-08T08:54:35.838Z,75456.00
2018-04-08T08:55:35.865Z,75680.00
2018-04-08T08:56:35.889Z,76512.00
2018-04-08T08:57:35.921Z,76576.00
2018-04-08T08:58:35.950Z,76960.00
2018-04-08T08:59:35.986Z,67136.00
2018-04-08T09:00:36.008Z,64096.00
2018-04-08T09:01:36.040Z,55744.00
2018-04-08T09:02:36.074Z,68768.00
2018-04-08T09:03:36.096Z,63776.00
2018-04-08T09:04:36.126Z,54016.00
2018-04-08T09:05:36.158Z,51776.00
2018-04-08T09:06:36.250Z,51936.00
2018-04-08T09:07:36.217Z,71616.00
2018-04-08T09:08:36.251Z,78688.00
2018-04-08T09:09:36.285Z,80352.00
2018-04-08T09:10:36.312Z,63264.00
2018-04-08T09:11:36.345Z,57216.00
2018-04-08T09:12:36.368Z,64192.00
2018-04-08T09:13:36.449Z,83456.00
2018-04-08T09:14:36.433Z,82752.00
2018-04-08T09:15:36.464Z,79392.00
2018-04-08T09:16:36.492Z,83456.00
2018-04-08T09:17:36.529Z,87936.00
2018-04-08T09:18:36.551Z,84736.00
2018-04-08T09:19:36.591Z,84736.00
2018-04-08T09:20:36.618Z,83360.00
2018-04-08T09:21:36.650Z,85888.00
2018-04-08T09:22:36.684Z,88864.00
2018-04-08T09:23:36.712Z,43840.00
2018-04-08T09:24:36.739Z,68320.00
2018-04-08T09:25:36.768Z,42048.00
2018-04-08T09:26:36.809Z,40992.00
2018-04-08T09:27:36.832Z,35840.00
2018-04-08T09:28:36.875Z,33728.00
2018-04-08T09:29:36.917Z,34336.00
2018-04-08T09:30:36.932Z,32064.00
2018-04-08T09:31:36.959Z,32448.00
2018-04-08T09:32:36.996Z,32352.00
2018-04-08T09:33:37.022Z,35104.00
2018-04-08T09:34:37.053Z,34016.00
2018-04-08T09:35:37.087Z,31904.00
2018-04-08T09:36:37.114Z,30880.00
2018-04-08T09:37:37.150Z,31136.00
2018-04-08T09:38:37.173Z,33536.00
2018-04-08T09:39:37.207Z,35872.00
2018-04-08T09:40:37.235Z,44864.00
2018-04-08T09:41:37.267Z,50368.00
2018-04-08T09:42:37.300Z,55392.00
2018-04-08T09:43:37.327Z,49120.00
2018-04-08T09:44:37.362Z,61184.00
2018-04-08T09:45:37.388Z,43520.00
2018-04-08T09:46:37.421Z,38048.00
2018-04-08T09:47:37.443Z,35680.00
2018-04-08T09:48:37.480Z,40416.00
2018-04-08T09:49:37.510Z,41088.00
2018-04-08T09:50:37.538Z,45728.00
2018-04-08T09:51:37.573Z,60256.00
2018-04-08T09:52:37.591Z,79104.00
2018-04-08T09:53:37.620Z,92128.00
2018-04-08T09:54:37.665Z,82688.00
2018-04-08T09:55:37.680Z,77920.00
2018-04-08T09:56:37.713Z,81504.00
2018-04-08T09:57:37.741Z,91456.00
2018-04-08T09:58:37.779Z,91808.00
2018-04-08T09:59:37.801Z,90880.00
2018-04-08T10:00:37.838Z,90048.00
2018-04-08T10:01:37.864Z,90528.00
2018-04-08T10:02:37.898Z,90368.00
2018-04-08T10:03:37.926Z,88928.00
2018-04-08T10:04:37.962Z,87808.00
2018-04-08T10:05:38.060Z,89184.00
2018-04-08T10:06:38.019Z,88416.00
2018-04-08T10:07:38.054Z,87456.00
2018-04-08T10:08:38.089Z,88096.00
2018-04-08T10:09:38.118Z,86752.00
2018-04-08T10:10:38.142Z,79520.00
2018-04-08T10:11:38.177Z,78368.00
2018-04-08T10:12:38.206Z,72096.00
2018-04-08T10:13:38.240Z,89280.00
2018-04-08T10:14:38.274Z,81504.00
2018-04-08T10:15:38.305Z,81280.00
2018-04-08T10:16:38.340Z,44000.00
2018-04-08T10:17:38.380Z,34368.00
2018-04-08T10:18:38.408Z,30464.00
2018-04-08T10:19:38.432Z,31200.00
2018-04-08T10:20:38.474Z,30144.00
2018-04-08T10:21:38.511Z,30816.00
2018-04-08T10:22:38.531Z,30592.00
2018-04-08T10:23:38.567Z,34080.00
2018-04-08T10:24:38.600Z,38560.00
2018-04-08T10:25:38.633Z,46752.00
2018-04-08T10:26:38.667Z,44928.00
2018-04-08T10:27:38.700Z,51808.00
2018-04-08T10:28:38.731Z,46880.00
2018-04-08T10:29:38.760Z,34720.00
2018-04-08T10:30:38.790Z,31712.00
2018-04-08T10:31:38.819Z,33088.00
2018-04-08T10:32:38.857Z,37696.00
2018-04-08T10:33:38.890Z,45056.00
2018-04-08T10:34:38.913Z,47968.00
2018-04-08T10:35:38.950Z,51360.00
2018-04-08T10:36:38.982Z,56000.00
2018-04-08T10:37:39.013Z,38912.00
2018-04-08T10:38:39.049Z,31200.00
2018-04-08T10:39:39.076Z,27104.00
2018-04-08T10:40:39.104Z,25504.00
2018-04-08T10:41:39.135Z,24512.00
2018-04-08T10:42:39.168Z,23968.00
2018-04-08T10:43:39.201Z,23936.00
2018-04-08T10:44:39.228Z,23872.00
2018-04-08T10:45:39.258Z,22816.00
2018-04-08T10:46:39.293Z,21600.00
2018-04-08T10:47:39.326Z,21248.00
2018-04-08T10:48:39.347Z,22112.00
2018-04-08T10:49:39.377Z,22848.00
2018-04-08T10:50:39.416Z,22496.00
2018-04-08T10:51:39.470Z,23040.00
2018-04-08T10:52:39.514Z,22816.00
2018-04-08T10:53:39.504Z,22912.00
2018-04-08T10:54:39.528Z,23136.00
2018-04-08T10:55:39.561Z,24544.00
2018-04-08T10:56:39.594Z,27648.00
2018-04-08T10:57:39.622Z,26368.00
2018-04-08T10:58:39.653Z,30816.00
2018-04-08T10:59:39.678Z,28800.00
2018-04-08T11:00:39.715Z,34304.00
2018-04-08T11:01:39.742Z,25824.00
2018-04-08T11:02:39.768Z,26688.00
2018-04-08T11:03:39.797Z,26784.00
2018-04-08T11:04:39.833Z,26816.00
2018-04-08T11:05:39.862Z,24800.00
2018-04-08T11:06:39.883Z,22464.00
2018-04-08T11:07:39.915Z,22144.00
2018-04-08T11:08:39.946Z,22304.00
2018-04-08T11:09:39.970Z,23008.00
2018-04-08T11:10:40.009Z,24416.00
2018-04-08T11:11:40.031Z,27584.00
2018-04-08T11:12:40.065Z,34304.00
2018-04-08T11:13:40.108Z,46944.00
2018-04-08T11:14:40.125Z,62592.00
2018-04-08T11:15:40.148Z,61600.00
2018-04-08T11:16:40.178Z,68128.00
2018-04-08T11:17:40.204Z,71776.00
2018-04-08T11:18:40.237Z,72960.00
2018-04-08T11:19:40.263Z,77440.00
2018-04-08T11:20:40.295Z,77888.00
2018-04-08T11:21:40.318Z,74464.00
2018-04-08T11:22:40.357Z,73248.00
2018-04-08T11:23:40.377Z,75136.00
2018-04-08T11:24:40.414Z,75200.00
2018-04-08T11:25:40.439Z,75936.00
2018-04-08T11:26:40.471Z,78432.00
2018-04-08T11:27:40.500Z,78720.00
2018-04-08T11:28:40.532Z,76000.00
2018-04-08T11:29:40.560Z,68800.00
2018-04-08T11:30:40.599Z,63136.00
2018-04-08T11:31:40.621Z,73632.00
2018-04-08T11:32:40.662Z,70816.00
2018-04-08T11:33:40.683Z,73152.00
2018-04-08T11:34:40.728Z,76448.00
2018-04-08T11:35:40.747Z,76512.00
2018-04-08T11:36:40.785Z,70912.00
2018-04-08T11:37:40.810Z,71072.00
2018-04-08T11:38:40.848Z,66816.00
2018-04-08T11:39:40.877Z,71808.00
2018-04-08T11:40:40.911Z,65440.00
2018-04-08T11:41:40.945Z,62688.00
2018-04-08T11:42:40.980Z,59456.00
2018-04-08T11:43:41.010Z,67072.00
2018-04-08T11:44:41.040Z,67264.00
2018-04-08T11:45:41.070Z,68992.00
2018-04-08T11:46:41.107Z,73056.00
2018-04-08T11:47:41.145Z,68992.00
2018-04-08T11:48:41.166Z,71584.00
2018-04-08T11:49:41.208Z,60288.00
2018-04-08T11:50:41.237Z,64608.00
2018-04-08T11:51:41.270Z,46720.00
2018-04-08T11:52:41.305Z,27744.00
2018-04-08T11:53:41.339Z,25600.00
2018-04-08T11:54:41.368Z,31424.00
2018-04-08T11:55:41.399Z,32928.00
2018-04-08T11:56:41.439Z,37728.00
2018-04-08T11:57:41.467Z,31008.00
2018-04-08T11:58:41.498Z,28032.00
2018-04-08T11:59:41.533Z,31296.00
2018-04-08T12:00:41.575Z,48096.00
2018-04-08T12:01:41.599Z,46368.00
2018-04-08T12:02:41.631Z,40576.00
2018-04-08T12:03:41.660Z,43456.00
2018-04-08T12:04:41.700Z,40416.00
2018-04-08T12:05:41.723Z,50272.00
2018-04-08T12:06:41.763Z,60128.00
2018-04-08T12:07:41.795Z,65216.00
2018-04-08T12:08:41.827Z,70400.00
2018-04-08T12:09:41.854Z,65920.00
2018-04-08T12:10:41.888Z,70752.00
2018-04-08T12:11:41.918Z,70400.00
2018-04-08T12:12:41.951Z,67040.00
2018-04-08T12:13:41.978Z,65216.00
2018-04-08T12:14:42.018Z,63488.00
2018-04-08T12:15:42.044Z,60800.00
2018-04-08T12:16:42.082Z,60832.00
2018-04-08T12:17:42.108Z,59488.00
2018-04-08T12:18:42.145Z,60352.00
2018-04-08T12:19:42.175Z,59808.00
2018-04-08T12:20:42.214Z,58976.00
2018-04-08T12:21:42.248Z,60448.00
2018-04-08T12:22:42.269Z,60544.00